Cedar Valley, Iowa
Current Conditions -  °F | °C
As of 1:52 PM on Saturday 25 Oct 2014 (Local Time) from KIOW Reporting Station
Clear Clear  
Wind Chill: 68°   Ceiling: Unl
Heat Index: 68°   Visibility: 10mi
Dew Point: 39°   Wind: 14mph
Humidity: 35%   Direction: 330°NNW
Pressure: 30.06"   Gusts: NA
Location:  41.6714°N, 91.2723°W
Report Text: KIOW 251852Z AUTO 33012KT 10SM CLR 20/04 A3006 RMK AO2 RAB22E38 SLP178 P0000 T02000039 $
Loading
Personal Weather Stations






























Interactive Weather Map
Tropical Storm Tracking
New forecast layout! Learn more

10-Day Weather Forecast

Advertisements
Track Severe Weather on mobile